Historique des mesures à Cassis (13260), France
Quotidien Résumé Septembre 24, 2017 Unités:  Métrique    US   Métrique/US
« Précédent (Jour)
Suivant (Jour) »
Quotidien Hebdomadaire Mensuel Annuel Période au choix
  Maximum: Minimum: Moyenne:
Température: TemperatureC °C 15.5 °C 17.9 °C
Point de rosée: DewpointC °C 12.7 °C 13.8 °C
Humidité: Humidity % 64 % 73 %
Vitesse du vent: 0 km/h 0 km/h 4.2 km/h
Rafales: 0 km/h - -
Vent:- - SE
Pression: PressurehPa hPa 1013.4 hPa -
Précipitations: 0.0 mm    
Historical Graphs
 
 
Mesures pour : Septembre 24, 2017
Heure Temperature Point de rosée Pression Vent Vitesse du vent Rafales Humidité Pluie (par heure) Conditions
TemperatureC °C DewpointC °C PressurehPa hPa Calm     Humidity % HourlyPrecipMM mm SoftwareType W/m2
00:11 17.3 °C 14.2 °C 1016.1 hPa NNW 3.4 km/h 3.4 km/h 82 % 0.0 mm open2300-1.11 W/m2
01:11 17.1 °C 14.3 °C 1016.1 hPa North 4.7 km/h 4.7 km/h 84 % 0.0 mm open2300-1.11 W/m2
02:11 16.8 °C 14.1 °C 1016.1 hPa NNE 3.4 km/h 3.4 km/h 84 % 0.0 mm open2300-1.11 W/m2
03:11 16.6 °C 13.9 °C 1015.5 hPa North 2.3 km/h 2.3 km/h 84 % 0.0 mm open2300-1.11 W/m2
04:11 16.5 °C 13.8 °C 1015.5 hPa Calm   1.8 km/h 84 % 0.0 mm open2300-1.11 W/m2
06:11 15.6 °C 12.9 °C 1015.1 hPa Calm     84 % 0.0 mm open2300-1.11 W/m2
07:11 15.5 °C 12.8 °C 1015.1 hPa Calm     84 % 0.0 mm open2300-1.11 W/m2
08:11 15.9 °C 13.1 °C 1015.1 hPa North 6.4 km/h 10.9 km/h 83 % 0.0 mm open2300-1.11 W/m2
09:11 17.3 °C 14.2 °C 1015.1 hPa Calm   2.9 km/h 82 % 0.0 mm open2300-1.11 W/m2
10:11 19.4 °C 14.4 °C 1014.8 hPa NNE 6.4 km/h 13.2 km/h 73 % 0.0 mm open2300-1.11 W/m2
11:11 20.8 °C 14.7 °C 1015.1 hPa NNW 10.3 km/h 10.9 km/h 68 % 0.0 mm open2300-1.11 W/m2
12:11 21.4 °C 14.8 °C 1014.8 hPa NW 17.4 km/h 17.4 km/h 66 % 0.0 mm open2300-1.11 W/m2
13:11 22.8 °C 15.6 °C 1014.4 hPa Calm   13.2 km/h 64 % 0.0 mm open2300-1.11 W/m2
14:11 22.8 °C 16.1 °C 1013.8 hPa SSE 8.9 km/h 15 km/h 66 % 0.0 mm open2300-1.11 W/m2
15:11 21.8 °C 15.8 °C 1013.4 hPa SE 9.3 km/h 13.2 km/h 69 % 0.0 mm open2300-1.11 W/m2
16:11 21.3 °C 15.6 °C 1013.4 hPa SSE 9.8 km/h 15 km/h 70 % 0.0 mm open2300-1.11 W/m2
17:11 20.6 °C 15.6 °C 1013.4 hPa SE 2.3 km/h 6.4 km/h 73 % 0.0 mm open2300-1.11 W/m2
18:11 19.9 °C 15.3 °C 1013.4 hPa SSE 9.3 km/h 14 km/h 75 % 0.0 mm open2300-1.11 W/m2
19:11 19.3 °C 15.2 °C 1013.4 hPa Calm   2.3 km/h 77 % 0.0 mm open2300-1.11 W/m2
20:11 18.2 °C 14.5 °C 1013.8 hPa North 2.3 km/h 6.4 km/h 79 % 0.0 mm open2300-1.11 W/m2
21:11 17.9 °C 14.4 °C 1014.1 hPa Calm     80 % 0.0 mm open2300-1.11 W/m2
23:11 17.0 °C 12.7 °C 1014.8 hPa Calm     76 % 0.0 mm open2300-1.11 W/m2
Observations météo à CASSIS
WU-History script by Weather Underground - 1 mb